sensor_id;sensor_type;location;lat;lon;timestamp;P1;durP1;ratioP1;P2;durP2;ratioP2
68866;SDS011;56451;44.804;20.476;2022-09-21T00:02:07;6.03;;;3.00;;
68866;SDS011;56451;44.804;20.476;2022-09-21T00:04:32;5.50;;;2.90;;
68866;SDS011;56451;44.804;20.476;2022-09-21T00:06:58;5.23;;;3.13;;
68866;SDS011;56451;44.804;20.476;2022-09-21T00:09:24;5.78;;;2.97;;
68866;SDS011;56451;44.804;20.476;2022-09-21T00:11:49;5.40;;;3.03;;
68866;SDS011;56451;44.804;20.476;2022-09-21T00:14:16;6.95;;;3.13;;
68866;SDS011;56451;44.804;20.476;2022-09-21T00:16:41;5.32;;;3.22;;
68866;SDS011;56451;44.804;20.476;2022-09-21T00:19:08;4.95;;;2.85;;
68866;SDS011;56451;44.804;20.476;2022-09-21T00:21:34;6.13;;;3.20;;
68866;SDS011;56451;44.804;20.476;2022-09-21T00:24:02;4.20;;;2.72;;
68866;SDS011;56451;44.804;20.476;2022-09-21T00:26:29;6.03;;;2.92;;
68866;SDS011;56451;44.804;20.476;2022-09-21T00:28:56;3.75;;;2.67;;
68866;SDS011;56451;44.804;20.476;2022-09-21T00:31:24;4.90;;;2.75;;
68866;SDS011;56451;44.804;20.476;2022-09-21T00:33:50;4.87;;;2.67;;
68866;SDS011;56451;44.804;20.476;2022-09-21T00:36:17;4.53;;;2.47;;
68866;SDS011;56451;44.804;20.476;2022-09-21T00:38:48;3.45;;;2.30;;
68866;SDS011;56451;44.804;20.476;2022-09-21T00:41:15;5.38;;;2.50;;
68866;SDS011;56451;44.804;20.476;2022-09-21T00:43:44;3.80;;;2.60;;
68866;SDS011;56451;44.804;20.476;2022-09-21T00:46:17;5.63;;;2.42;;
68866;SDS011;56451;44.804;20.476;2022-09-21T00:48:52;7.80;;;2.38;;
68866;SDS011;56451;44.804;20.476;2022-09-21T00:51:17;6.28;;;2.58;;
68866;SDS011;56451;44.804;20.476;2022-09-21T00:53:44;4.63;;;2.90;;
68866;SDS011;56451;44.804;20.476;2022-09-21T00:56:11;5.33;;;3.00;;
68866;SDS011;56451;44.804;20.476;2022-09-21T00:58:39;5.25;;;2.42;;
68866;SDS011;56451;44.804;20.476;2022-09-21T01:01:12;4.47;;;2.58;;
68866;SDS011;56451;44.804;20.476;2022-09-21T01:03:40;5.97;;;2.53;;
68866;SDS011;56451;44.804;20.476;2022-09-21T01:06:10;5.32;;;2.78;;
68866;SDS011;56451;44.804;20.476;2022-09-21T01:08:37;4.83;;;2.70;;
68866;SDS011;56451;44.804;20.476;2022-09-21T01:17:01;5.70;;;2.65;;
68866;SDS011;56451;44.804;20.476;2022-09-21T01:19:50;5.60;;;2.88;;
68866;SDS011;56451;44.804;20.476;2022-09-21T01:30:48;4.78;;;2.75;;
68866;SDS011;56451;44.804;20.476;2022-09-21T01:33:23;4.05;;;2.33;;
68866;SDS011;56451;44.804;20.476;2022-09-21T01:35:52;5.47;;;2.30;;
68866;SDS011;56451;44.804;20.476;2022-09-21T01:38:23;4.95;;;2.47;;
68866;SDS011;56451;44.804;20.476;2022-09-21T01:40:57;4.78;;;2.60;;
68866;SDS011;56451;44.804;20.476;2022-09-21T01:43:36;4.07;;;2.60;;
68866;SDS011;56451;44.804;20.476;2022-09-21T01:46:05;4.50;;;2.40;;
68866;SDS011;56451;44.804;20.476;2022-09-21T01:48:36;4.33;;;2.40;;
68866;SDS011;56451;44.804;20.476;2022-09-21T01:51:06;2.63;;;2.03;;
68866;SDS011;56451;44.804;20.476;2022-09-21T01:59:11;3.95;;;1.88;;
68866;SDS011;56451;44.804;20.476;2022-09-21T02:01:45;5.30;;;2.27;;
68866;SDS011;56451;44.804;20.476;2022-09-21T02:04:17;4.22;;;2.45;;
68866;SDS011;56451;44.804;20.476;2022-09-21T02:06:44;3.38;;;2.30;;
68866;SDS011;56451;44.804;20.476;2022-09-21T02:09:11;4.07;;;2.13;;
68866;SDS011;56451;44.804;20.476;2022-09-21T02:11:38;4.13;;;2.00;;
68866;SDS011;56451;44.804;20.476;2022-09-21T02:14:07;2.97;;;2.00;;
68866;SDS011;56451;44.804;20.476;2022-09-21T02:16:43;5.18;;;1.92;;
68866;SDS011;56451;44.804;20.476;2022-09-21T02:19:25;3.47;;;2.00;;
68866;SDS011;56451;44.804;20.476;2022-09-21T02:22:08;3.83;;;2.10;;
68866;SDS011;56451;44.804;20.476;2022-09-21T02:24:49;5.75;;;2.00;;
68866;SDS011;56451;44.804;20.476;2022-09-21T02:28:03;2.83;;;1.92;;
68866;SDS011;56451;44.804;20.476;2022-09-21T02:30:18;5.68;;;2.20;;
68866;SDS011;56451;44.804;20.476;2022-09-21T02:49:04;4.50;;;1.60;;
68866;SDS011;56451;44.804;20.476;2022-09-21T02:51:38;4.13;;;1.77;;
68866;SDS011;56451;44.804;20.476;2022-09-21T02:54:10;8.20;;;2.35;;
68866;SDS011;56451;44.804;20.476;2022-09-21T02:56:39;3.55;;;2.10;;
68866;SDS011;56451;44.804;20.476;2022-09-21T02:59:06;3.85;;;2.00;;
68866;SDS011;56451;44.804;20.476;2022-09-21T03:01:32;5.57;;;2.03;;
68866;SDS011;56451;44.804;20.476;2022-09-21T03:03:58;2.55;;;2.03;;
68866;SDS011;56451;44.804;20.476;2022-09-21T03:06:24;3.47;;;2.00;;
68866;SDS011;56451;44.804;20.476;2022-09-21T03:08:51;3.77;;;2.03;;
68866;SDS011;56451;44.804;20.476;2022-09-21T03:11:17;2.85;;;1.60;;
68866;SDS011;56451;44.804;20.476;2022-09-21T03:13:44;3.22;;;1.65;;
68866;SDS011;56451;44.804;20.476;2022-09-21T03:16:10;3.45;;;2.10;;
68866;SDS011;56451;44.804;20.476;2022-09-21T03:18:36;4.22;;;2.42;;
68866;SDS011;56451;44.804;20.476;2022-09-21T03:21:04;5.10;;;2.10;;
68866;SDS011;56451;44.804;20.476;2022-09-21T03:23:30;3.10;;;2.15;;
68866;SDS011;56451;44.804;20.476;2022-09-21T03:25:56;3.78;;;1.85;;
68866;SDS011;56451;44.804;20.476;2022-09-21T03:28:22;4.73;;;2.17;;
68866;SDS011;56451;44.804;20.476;2022-09-21T03:30:48;3.97;;;2.15;;
68866;SDS011;56451;44.804;20.476;2022-09-21T03:33:15;4.40;;;2.08;;
68866;SDS011;56451;44.804;20.476;2022-09-21T03:35:43;4.57;;;2.40;;
68866;SDS011;56451;44.804;20.476;2022-09-21T03:38:09;4.60;;;2.20;;
68866;SDS011;56451;44.804;20.476;2022-09-21T03:40:35;4.32;;;2.50;;
68866;SDS011;56451;44.804;20.476;2022-09-21T03:43:01;5.10;;;2.28;;
68866;SDS011;56451;44.804;20.476;2022-09-21T03:45:27;6.37;;;2.70;;
68866;SDS011;56451;44.804;20.476;2022-09-21T03:47:57;3.63;;;2.08;;
68866;SDS011;56451;44.804;20.476;2022-09-21T03:50:24;5.57;;;2.35;;
68866;SDS011;56451;44.804;20.476;2022-09-21T03:52:53;4.82;;;2.25;;
68866;SDS011;56451;44.804;20.476;2022-09-21T03:55:20;3.58;;;1.77;;
68866;SDS011;56451;44.804;20.476;2022-09-21T03:57:46;5.57;;;2.53;;
68866;SDS011;56451;44.804;20.476;2022-09-21T04:00:11;3.78;;;2.10;;
68866;SDS011;56451;44.804;20.476;2022-09-21T04:02:38;4.53;;;2.10;;
68866;SDS011;56451;44.804;20.476;2022-09-21T04:05:07;5.10;;;2.33;;
68866;SDS011;56451;44.804;20.476;2022-09-21T04:07:34;5.82;;;2.30;;
68866;SDS011;56451;44.804;20.476;2022-09-21T04:10:02;5.50;;;2.70;;
68866;SDS011;56451;44.804;20.476;2022-09-21T04:12:30;6.85;;;2.22;;
68866;SDS011;56451;44.804;20.476;2022-09-21T04:14:59;4.13;;;2.10;;
68866;SDS011;56451;44.804;20.476;2022-09-21T04:17:26;4.32;;;2.25;;
68866;SDS011;56451;44.804;20.476;2022-09-21T04:19:52;3.63;;;2.63;;
68866;SDS011;56451;44.804;20.476;2022-09-21T04:22:18;4.23;;;2.57;;
68866;SDS011;56451;44.804;20.476;2022-09-21T04:24:43;3.10;;;2.28;;
68866;SDS011;56451;44.804;20.476;2022-09-21T04:27:10;3.97;;;2.08;;
68866;SDS011;56451;44.804;20.476;2022-09-21T04:29:36;5.63;;;2.27;;
68866;SDS011;56451;44.804;20.476;2022-09-21T04:32:02;4.15;;;2.30;;
68866;SDS011;56451;44.804;20.476;2022-09-21T04:34:29;5.93;;;2.28;;
68866;SDS011;56451;44.804;20.476;2022-09-21T04:36:56;5.38;;;2.13;;
68866;SDS011;56451;44.804;20.476;2022-09-21T04:39:22;6.03;;;2.08;;
68866;SDS011;56451;44.804;20.476;2022-09-21T04:41:49;4.33;;;2.40;;
68866;SDS011;56451;44.804;20.476;2022-09-21T04:44:15;5.68;;;2.30;;
68866;SDS011;56451;44.804;20.476;2022-09-21T04:46:42;3.75;;;2.17;;
68866;SDS011;56451;44.804;20.476;2022-09-21T04:49:08;4.37;;;2.20;;
68866;SDS011;56451;44.804;20.476;2022-09-21T04:51:35;3.15;;;2.10;;
68866;SDS011;56451;44.804;20.476;2022-09-21T04:54:01;4.57;;;2.35;;
68866;SDS011;56451;44.804;20.476;2022-09-21T04:56:27;3.85;;;2.20;;
68866;SDS011;56451;44.804;20.476;2022-09-21T04:58:53;7.70;;;2.20;;
68866;SDS011;56451;44.804;20.476;2022-09-21T05:01:19;3.63;;;2.13;;
68866;SDS011;56451;44.804;20.476;2022-09-21T05:03:44;5.28;;;2.70;;
68866;SDS011;56451;44.804;20.476;2022-09-21T05:06:10;4.00;;;2.30;;
68866;SDS011;56451;44.804;20.476;2022-09-21T05:08:38;5.20;;;2.13;;
68866;SDS011;56451;44.804;20.476;2022-09-21T05:11:23;3.15;;;2.10;;
68866;SDS011;56451;44.804;20.476;2022-09-21T05:13:49;5.60;;;2.30;;
68866;SDS011;56451;44.804;20.476;2022-09-21T05:16:15;6.05;;;2.42;;
68866;SDS011;56451;44.804;20.476;2022-09-21T05:18:42;3.47;;;2.33;;
68866;SDS011;56451;44.804;20.476;2022-09-21T05:21:10;4.60;;;2.25;;
68866;SDS011;56451;44.804;20.476;2022-09-21T05:26:45;6.32;;;2.40;;
68866;SDS011;56451;44.804;20.476;2022-09-21T05:29:11;7.20;;;2.42;;
68866;SDS011;56451;44.804;20.476;2022-09-21T05:31:39;5.40;;;2.70;;
68866;SDS011;56451;44.804;20.476;2022-09-21T05:37:01;6.05;;;2.78;;
68866;SDS011;56451;44.804;20.476;2022-09-21T05:39:34;5.63;;;2.60;;
68866;SDS011;56451;44.804;20.476;2022-09-21T05:42:00;4.63;;;2.50;;
68866;SDS011;56451;44.804;20.476;2022-09-21T05:44:26;3.60;;;2.40;;
68866;SDS011;56451;44.804;20.476;2022-09-21T05:49:38;6.80;;;2.60;;
68866;SDS011;56451;44.804;20.476;2022-09-21T05:55:42;7.40;;;2.53;;
68866;SDS011;56451;44.804;20.476;2022-09-21T06:03:53;8.25;;;3.03;;
68866;SDS011;56451;44.804;20.476;2022-09-21T06:06:21;4.93;;;2.50;;
68866;SDS011;56451;44.804;20.476;2022-09-21T06:08:46;4.23;;;2.30;;
68866;SDS011;56451;44.804;20.476;2022-09-21T06:11:12;4.27;;;2.60;;
68866;SDS011;56451;44.804;20.476;2022-09-21T06:13:38;5.53;;;2.47;;
68866;SDS011;56451;44.804;20.476;2022-09-21T06:16:06;3.78;;;2.20;;
68866;SDS011;56451;44.804;20.476;2022-09-21T06:18:35;8.57;;;2.72;;
68866;SDS011;56451;44.804;20.476;2022-09-21T06:21:03;4.00;;;2.63;;
68866;SDS011;56451;44.804;20.476;2022-09-21T06:23:29;4.90;;;2.78;;
68866;SDS011;56451;44.804;20.476;2022-09-21T06:25:55;4.63;;;2.80;;
68866;SDS011;56451;44.804;20.476;2022-09-21T06:28:21;4.25;;;2.55;;
68866;SDS011;56451;44.804;20.476;2022-09-21T06:30:50;9.00;;;3.63;;
68866;SDS011;56451;44.804;20.476;2022-09-21T06:33:17;4.65;;;3.20;;
68866;SDS011;56451;44.804;20.476;2022-09-21T06:35:52;4.47;;;3.00;;
68866;SDS011;56451;44.804;20.476;2022-09-21T06:38:22;4.45;;;2.90;;
68866;SDS011;56451;44.804;20.476;2022-09-21T06:40:49;4.27;;;2.73;;
68866;SDS011;56451;44.804;20.476;2022-09-21T06:43:16;4.18;;;2.95;;
68866;SDS011;56451;44.804;20.476;2022-09-21T06:45:42;8.20;;;2.90;;
68866;SDS011;56451;44.804;20.476;2022-09-21T06:48:08;3.63;;;2.40;;
68866;SDS011;56451;44.804;20.476;2022-09-21T06:50:34;4.70;;;2.97;;
68866;SDS011;56451;44.804;20.476;2022-09-21T06:53:00;4.28;;;2.90;;
68866;SDS011;56451;44.804;20.476;2022-09-21T06:55:28;3.85;;;2.20;;
68866;SDS011;56451;44.804;20.476;2022-09-21T06:58:01;5.18;;;3.22;;
68866;SDS011;56451;44.804;20.476;2022-09-21T07:00:29;5.35;;;2.53;;
68866;SDS011;56451;44.804;20.476;2022-09-21T07:02:56;8.00;;;2.53;;
68866;SDS011;56451;44.804;20.476;2022-09-21T07:05:22;6.85;;;3.33;;
68866;SDS011;56451;44.804;20.476;2022-09-21T07:07:48;4.25;;;2.80;;
68866;SDS011;56451;44.804;20.476;2022-09-21T07:10:14;3.40;;;2.50;;
68866;SDS011;56451;44.804;20.476;2022-09-21T07:12:40;5.97;;;2.80;;
68866;SDS011;56451;44.804;20.476;2022-09-21T07:15:06;5.18;;;3.10;;
68866;SDS011;56451;44.804;20.476;2022-09-21T07:17:34;7.68;;;3.30;;
68866;SDS011;56451;44.804;20.476;2022-09-21T07:20:02;7.93;;;3.03;;
68866;SDS011;56451;44.804;20.476;2022-09-21T07:22:29;4.78;;;3.20;;
68866;SDS011;56451;44.804;20.476;2022-09-21T07:24:58;5.37;;;2.93;;
68866;SDS011;56451;44.804;20.476;2022-09-21T07:27:24;8.63;;;3.40;;
68866;SDS011;56451;44.804;20.476;2022-09-21T07:29:51;8.27;;;3.40;;
68866;SDS011;56451;44.804;20.476;2022-09-21T07:32:17;4.25;;;2.88;;
68866;SDS011;56451;44.804;20.476;2022-09-21T07:34:43;5.55;;;3.28;;
68866;SDS011;56451;44.804;20.476;2022-09-21T07:37:09;4.90;;;3.40;;
68866;SDS011;56451;44.804;20.476;2022-09-21T07:39:35;5.38;;;3.20;;
68866;SDS011;56451;44.804;20.476;2022-09-21T07:42:03;4.40;;;3.08;;
68866;SDS011;56451;44.804;20.476;2022-09-21T07:44:30;5.03;;;3.27;;
68866;SDS011;56451;44.804;20.476;2022-09-21T07:46:55;7.43;;;3.92;;
68866;SDS011;56451;44.804;20.476;2022-09-21T07:49:21;4.27;;;2.93;;
68866;SDS011;56451;44.804;20.476;2022-09-21T07:51:47;5.10;;;3.35;;
68866;SDS011;56451;44.804;20.476;2022-09-21T07:54:13;5.83;;;3.30;;
68866;SDS011;56451;44.804;20.476;2022-09-21T07:56:40;6.00;;;3.38;;
68866;SDS011;56451;44.804;20.476;2022-09-21T07:59:07;6.28;;;4.35;;
68866;SDS011;56451;44.804;20.476;2022-09-21T08:01:36;11.05;;;5.60;;
68866;SDS011;56451;44.804;20.476;2022-09-21T08:04:04;7.00;;;4.57;;
68866;SDS011;56451;44.804;20.476;2022-09-21T08:06:32;9.40;;;4.97;;
68866;SDS011;56451;44.804;20.476;2022-09-21T08:09:00;10.93;;;5.10;;
68866;SDS011;56451;44.804;20.476;2022-09-21T08:11:28;6.43;;;4.82;;
68866;SDS011;56451;44.804;20.476;2022-09-21T08:13:55;6.60;;;4.60;;
68866;SDS011;56451;44.804;20.476;2022-09-21T08:16:24;8.50;;;5.20;;
68866;SDS011;56451;44.804;20.476;2022-09-21T08:18:51;6.37;;;4.60;;
68866;SDS011;56451;44.804;20.476;2022-09-21T08:21:17;8.10;;;4.40;;
68866;SDS011;56451;44.804;20.476;2022-09-21T08:23:45;9.68;;;4.20;;
68866;SDS011;56451;44.804;20.476;2022-09-21T08:26:13;6.70;;;4.28;;
68866;SDS011;56451;44.804;20.476;2022-09-21T08:28:42;7.75;;;4.38;;
68866;SDS011;56451;44.804;20.476;2022-09-21T08:31:13;6.50;;;4.23;;
68866;SDS011;56451;44.804;20.476;2022-09-21T08:33:40;10.40;;;4.53;;
68866;SDS011;56451;44.804;20.476;2022-09-21T08:36:07;9.95;;;4.50;;
68866;SDS011;56451;44.804;20.476;2022-09-21T08:38:33;7.23;;;3.90;;
68866;SDS011;56451;44.804;20.476;2022-09-21T08:41:02;7.85;;;4.18;;
68866;SDS011;56451;44.804;20.476;2022-09-21T08:44:27;6.75;;;4.53;;
68866;SDS011;56451;44.804;20.476;2022-09-21T08:46:57;7.72;;;4.47;;
68866;SDS011;56451;44.804;20.476;2022-09-21T08:49:49;5.55;;;4.20;;
68866;SDS011;56451;44.804;20.476;2022-09-21T08:52:18;6.37;;;4.53;;
68866;SDS011;56451;44.804;20.476;2022-09-21T08:57:50;6.80;;;4.03;;
68866;SDS011;56451;44.804;20.476;2022-09-21T09:00:16;7.80;;;3.90;;
68866;SDS011;56451;44.804;20.476;2022-09-21T09:08:41;9.10;;;4.30;;
68866;SDS011;56451;44.804;20.476;2022-09-21T09:16:35;10.27;;;4.70;;
68866;SDS011;56451;44.804;20.476;2022-09-21T09:21:53;5.78;;;4.00;;
68866;SDS011;56451;44.804;20.476;2022-09-21T09:27:05;7.13;;;4.57;;
68866;SDS011;56451;44.804;20.476;2022-09-21T09:32:13;7.82;;;4.10;;
68866;SDS011;56451;44.804;20.476;2022-09-21T09:35:00;6.78;;;4.25;;
68866;SDS011;56451;44.804;20.476;2022-09-21T09:37:32;7.03;;;4.23;;
68866;SDS011;56451;44.804;20.476;2022-09-21T09:40:05;8.40;;;3.78;;
68866;SDS011;56451;44.804;20.476;2022-09-21T09:48:26;6.50;;;3.63;;
68866;SDS011;56451;44.804;20.476;2022-09-21T09:50:54;6.97;;;4.13;;
68866;SDS011;56451;44.804;20.476;2022-09-21T09:53:21;5.65;;;4.07;;
68866;SDS011;56451;44.804;20.476;2022-09-21T09:55:53;7.90;;;4.65;;
68866;SDS011;56451;44.804;20.476;2022-09-21T09:58:34;6.85;;;4.53;;
68866;SDS011;56451;44.804;20.476;2022-09-21T10:01:02;7.23;;;3.80;;
68866;SDS011;56451;44.804;20.476;2022-09-21T10:03:29;5.57;;;4.18;;
68866;SDS011;56451;44.804;20.476;2022-09-21T10:05:54;6.57;;;4.30;;
68866;SDS011;56451;44.804;20.476;2022-09-21T10:08:27;6.27;;;3.77;;
68866;SDS011;56451;44.804;20.476;2022-09-21T10:11:06;6.68;;;3.80;;
68866;SDS011;56451;44.804;20.476;2022-09-21T10:13:36;4.18;;;3.38;;
68866;SDS011;56451;44.804;20.476;2022-09-21T10:16:11;4.50;;;3.13;;
68866;SDS011;56451;44.804;20.476;2022-09-21T10:21:06;6.90;;;3.70;;
68866;SDS011;56451;44.804;20.476;2022-09-21T10:23:34;6.28;;;4.25;;
68866;SDS011;56451;44.804;20.476;2022-09-21T10:26:06;5.78;;;3.83;;
68866;SDS011;56451;44.804;20.476;2022-09-21T10:28:35;8.13;;;4.05;;
68866;SDS011;56451;44.804;20.476;2022-09-21T10:34:12;5.50;;;3.83;;
68866;SDS011;56451;44.804;20.476;2022-09-21T10:36:39;5.95;;;3.70;;
68866;SDS011;56451;44.804;20.476;2022-09-21T10:41:41;6.45;;;3.92;;
68866;SDS011;56451;44.804;20.476;2022-09-21T10:44:14;7.00;;;4.50;;
68866;SDS011;56451;44.804;20.476;2022-09-21T10:46:42;6.32;;;4.05;;
68866;SDS011;56451;44.804;20.476;2022-09-21T10:49:14;7.55;;;3.95;;
68866;SDS011;56451;44.804;20.476;2022-09-21T10:51:50;6.68;;;4.18;;
68866;SDS011;56451;44.804;20.476;2022-09-21T10:54:23;8.27;;;4.20;;
68866;SDS011;56451;44.804;20.476;2022-09-21T10:56:53;6.17;;;3.73;;
68866;SDS011;56451;44.804;20.476;2022-09-21T10:59:26;7.28;;;4.65;;
68866;SDS011;56451;44.804;20.476;2022-09-21T11:01:56;6.95;;;4.40;;
68866;SDS011;56451;44.804;20.476;2022-09-21T11:04:37;7.68;;;4.40;;
68866;SDS011;56451;44.804;20.476;2022-09-21T11:07:16;8.35;;;4.43;;
68866;SDS011;56451;44.804;20.476;2022-09-21T11:09:52;6.13;;;4.13;;
68866;SDS011;56451;44.804;20.476;2022-09-21T11:12:29;7.93;;;4.32;;
68866;SDS011;56451;44.804;20.476;2022-09-21T11:14:58;8.27;;;4.93;;
68866;SDS011;56451;44.804;20.476;2022-09-21T11:20:27;6.60;;;4.55;;
68866;SDS011;56451;44.804;20.476;2022-09-21T11:23:07;7.43;;;4.57;;
68866;SDS011;56451;44.804;20.476;2022-09-21T11:28:44;8.82;;;5.00;;
68866;SDS011;56451;44.804;20.476;2022-09-21T11:33:56;9.60;;;6.78;;
68866;SDS011;56451;44.804;20.476;2022-09-21T11:37:04;8.17;;;5.23;;
68866;SDS011;56451;44.804;20.476;2022-09-21T11:48:09;9.88;;;6.10;;
68866;SDS011;56451;44.804;20.476;2022-09-21T11:51:02;8.60;;;5.90;;
68866;SDS011;56451;44.804;20.476;2022-09-21T12:05:29;10.97;;;5.57;;
68866;SDS011;56451;44.804;20.476;2022-09-21T12:13:57;9.85;;;5.70;;
68866;SDS011;56451;44.804;20.476;2022-09-21T12:19:16;7.67;;;5.77;;
68866;SDS011;56451;44.804;20.476;2022-09-21T12:21:54;9.57;;;6.28;;
68866;SDS011;56451;44.804;20.476;2022-09-21T12:24:29;9.93;;;6.60;;
68866;SDS011;56451;44.804;20.476;2022-09-21T12:27:01;9.15;;;5.63;;
68866;SDS011;56451;44.804;20.476;2022-09-21T12:29:38;8.27;;;5.55;;
68866;SDS011;56451;44.804;20.476;2022-09-21T12:34:45;8.85;;;5.47;;
68866;SDS011;56451;44.804;20.476;2022-09-21T12:37:23;8.20;;;5.70;;
68866;SDS011;56451;44.804;20.476;2022-09-21T12:48:31;7.72;;;5.70;;
68866;SDS011;56451;44.804;20.476;2022-09-21T12:51:16;7.72;;;5.82;;
68866;SDS011;56451;44.804;20.476;2022-09-21T12:53:45;6.68;;;4.82;;
68866;SDS011;56451;44.804;20.476;2022-09-21T13:02:03;6.43;;;4.13;;
68866;SDS011;56451;44.804;20.476;2022-09-21T13:08:05;7.82;;;4.70;;
68866;SDS011;56451;44.804;20.476;2022-09-21T13:13:05;6.73;;;5.07;;
68866;SDS011;56451;44.804;20.476;2022-09-21T13:15:51;5.82;;;3.72;;
68866;SDS011;56451;44.804;20.476;2022-09-21T13:18:22;8.18;;;4.07;;
68866;SDS011;56451;44.804;20.476;2022-09-21T13:21:17;4.53;;;3.42;;
68866;SDS011;56451;44.804;20.476;2022-09-21T13:24:22;4.32;;;3.10;;
68866;SDS011;56451;44.804;20.476;2022-09-21T13:26:53;4.13;;;2.70;;
68866;SDS011;56451;44.804;20.476;2022-09-21T13:29:30;4.25;;;2.50;;
68866;SDS011;56451;44.804;20.476;2022-09-21T13:32:03;4.20;;;2.63;;
68866;SDS011;56451;44.804;20.476;2022-09-21T13:34:46;5.30;;;2.78;;
68866;SDS011;56451;44.804;20.476;2022-09-21T13:44:57;4.75;;;3.30;;
68866;SDS011;56451;44.804;20.476;2022-09-21T13:47:31;5.63;;;3.58;;
68866;SDS011;56451;44.804;20.476;2022-09-21T13:50:09;4.90;;;3.17;;
68866;SDS011;56451;44.804;20.476;2022-09-21T13:52:43;3.03;;;2.17;;
68866;SDS011;56451;44.804;20.476;2022-09-21T13:57:47;2.85;;;1.67;;
68866;SDS011;56451;44.804;20.476;2022-09-21T14:03:22;3.15;;;1.55;;
68866;SDS011;56451;44.804;20.476;2022-09-21T14:05:51;4.50;;;1.60;;
68866;SDS011;56451;44.804;20.476;2022-09-21T14:08:30;2.50;;;1.58;;
68866;SDS011;56451;44.804;20.476;2022-09-21T14:11:05;2.08;;;1.50;;
68866;SDS011;56451;44.804;20.476;2022-09-21T14:13:45;2.20;;;1.50;;
68866;SDS011;56451;44.804;20.476;2022-09-21T14:24:40;4.05;;;2.00;;
68866;SDS011;56451;44.804;20.476;2022-09-21T14:30:03;2.78;;;1.80;;
68866;SDS011;56451;44.804;20.476;2022-09-21T14:32:44;6.07;;;1.43;;
68866;SDS011;56451;44.804;20.476;2022-09-21T14:35:15;2.40;;;1.77;;
68866;SDS011;56451;44.804;20.476;2022-09-21T14:37:48;3.08;;;1.98;;
68866;SDS011;56451;44.804;20.476;2022-09-21T14:40:36;3.03;;;1.65;;
68866;SDS011;56451;44.804;20.476;2022-09-21T14:43:14;2.42;;;1.75;;
68866;SDS011;56451;44.804;20.476;2022-09-21T14:46:05;2.13;;;1.63;;
68866;SDS011;56451;44.804;20.476;2022-09-21T14:48:53;2.33;;;1.73;;
68866;SDS011;56451;44.804;20.476;2022-09-21T14:52:12;2.85;;;1.70;;
68866;SDS011;56451;44.804;20.476;2022-09-21T14:54:18;2.50;;;1.58;;
68866;SDS011;56451;44.804;20.476;2022-09-21T15:07:22;2.67;;;1.75;;
68866;SDS011;56451;44.804;20.476;2022-09-21T15:13:13;2.07;;;1.40;;
68866;SDS011;56451;44.804;20.476;2022-09-21T15:18:43;1.10;;;0.70;;
68866;SDS011;56451;44.804;20.476;2022-09-21T15:21:20;1.70;;;0.80;;
68866;SDS011;56451;44.804;20.476;2022-09-21T15:23:53;1.65;;;0.98;;
68866;SDS011;56451;44.804;20.476;2022-09-21T15:26:24;1.73;;;0.73;;
68866;SDS011;56451;44.804;20.476;2022-09-21T15:28:58;1.30;;;0.80;;
68866;SDS011;56451;44.804;20.476;2022-09-21T15:31:33;1.75;;;1.00;;
68866;SDS011;56451;44.804;20.476;2022-09-21T15:34:02;3.92;;;0.60;;
68866;SDS011;56451;44.804;20.476;2022-09-21T15:36:30;1.58;;;1.00;;
68866;SDS011;56451;44.804;20.476;2022-09-21T15:38:58;2.07;;;1.10;;
68866;SDS011;56451;44.804;20.476;2022-09-21T15:41:43;1.00;;;0.70;;
68866;SDS011;56451;44.804;20.476;2022-09-21T15:44:20;1.80;;;0.90;;
68866;SDS011;56451;44.804;20.476;2022-09-21T15:46:55;1.90;;;0.82;;
68866;SDS011;56451;44.804;20.476;2022-09-21T15:49:24;1.40;;;0.60;;
68866;SDS011;56451;44.804;20.476;2022-09-21T15:51:54;1.40;;;0.70;;
68866;SDS011;56451;44.804;20.476;2022-09-21T15:57:21;2.35;;;1.00;;
68866;SDS011;56451;44.804;20.476;2022-09-21T15:59:53;1.20;;;0.70;;
68866;SDS011;56451;44.804;20.476;2022-09-21T16:02:24;4.03;;;0.90;;
68866;SDS011;56451;44.804;20.476;2022-09-21T16:04:51;3.25;;;1.00;;
68866;SDS011;56451;44.804;20.476;2022-09-21T16:09:49;1.80;;;1.15;;
68866;SDS011;56451;44.804;20.476;2022-09-21T16:14:50;4.60;;;1.13;;
68866;SDS011;56451;44.804;20.476;2022-09-21T16:17:27;2.00;;;1.13;;
68866;SDS011;56451;44.804;20.476;2022-09-21T16:24:55;4.57;;;1.75;;
68866;SDS011;56451;44.804;20.476;2022-09-21T16:27:24;2.83;;;1.70;;
68866;SDS011;56451;44.804;20.476;2022-09-21T16:29:52;4.75;;;1.67;;
68866;SDS011;56451;44.804;20.476;2022-09-21T16:32:32;4.00;;;1.90;;
68866;SDS011;56451;44.804;20.476;2022-09-21T16:35:20;4.03;;;1.60;;
68866;SDS011;56451;44.804;20.476;2022-09-21T16:37:58;2.95;;;1.77;;
68866;SDS011;56451;44.804;20.476;2022-09-21T16:40:25;3.28;;;2.28;;
68866;SDS011;56451;44.804;20.476;2022-09-21T16:42:52;4.00;;;2.40;;
68866;SDS011;56451;44.804;20.476;2022-09-21T16:45:21;5.35;;;2.70;;
68866;SDS011;56451;44.804;20.476;2022-09-21T16:47:49;5.73;;;2.40;;
68866;SDS011;56451;44.804;20.476;2022-09-21T16:50:17;4.18;;;1.85;;
68866;SDS011;56451;44.804;20.476;2022-09-21T16:52:43;5.13;;;2.13;;
68866;SDS011;56451;44.804;20.476;2022-09-21T16:55:17;4.15;;;2.30;;
68866;SDS011;56451;44.804;20.476;2022-09-21T16:57:46;5.07;;;2.70;;
68866;SDS011;56451;44.804;20.476;2022-09-21T17:00:13;3.65;;;2.55;;
68866;SDS011;56451;44.804;20.476;2022-09-21T17:02:45;4.40;;;2.50;;
68866;SDS011;56451;44.804;20.476;2022-09-21T17:05:12;3.25;;;2.30;;
68866;SDS011;56451;44.804;20.476;2022-09-21T17:07:52;3.78;;;2.60;;
68866;SDS011;56451;44.804;20.476;2022-09-21T17:10:20;4.87;;;3.00;;
68866;SDS011;56451;44.804;20.476;2022-09-21T17:12:51;4.78;;;2.60;;
68866;SDS011;56451;44.804;20.476;2022-09-21T17:15:18;3.92;;;2.47;;
68866;SDS011;56451;44.804;20.476;2022-09-21T17:17:44;5.05;;;2.40;;
68866;SDS011;56451;44.804;20.476;2022-09-21T17:20:15;5.00;;;2.90;;
68866;SDS011;56451;44.804;20.476;2022-09-21T17:22:44;6.65;;;2.58;;
68866;SDS011;56451;44.804;20.476;2022-09-21T17:25:10;4.82;;;2.47;;
68866;SDS011;56451;44.804;20.476;2022-09-21T17:27:36;4.32;;;2.78;;
68866;SDS011;56451;44.804;20.476;2022-09-21T17:30:07;4.83;;;2.50;;
68866;SDS011;56451;44.804;20.476;2022-09-21T17:32:37;2.90;;;1.95;;
68866;SDS011;56451;44.804;20.476;2022-09-21T17:35:13;3.30;;;2.20;;
68866;SDS011;56451;44.804;20.476;2022-09-21T17:38:03;3.72;;;2.05;;
68866;SDS011;56451;44.804;20.476;2022-09-21T17:40:30;3.65;;;2.10;;
68866;SDS011;56451;44.804;20.476;2022-09-21T17:43:10;2.97;;;2.37;;
68866;SDS011;56451;44.804;20.476;2022-09-21T17:48:40;4.47;;;2.10;;
68866;SDS011;56451;44.804;20.476;2022-09-21T17:51:06;3.65;;;2.30;;
68866;SDS011;56451;44.804;20.476;2022-09-21T17:53:32;5.65;;;2.25;;
68866;SDS011;56451;44.804;20.476;2022-09-21T17:56:00;3.30;;;2.10;;
68866;SDS011;56451;44.804;20.476;2022-09-21T18:01:25;3.08;;;2.65;;
68866;SDS011;56451;44.804;20.476;2022-09-21T18:03:57;4.40;;;2.40;;
68866;SDS011;56451;44.804;20.476;2022-09-21T18:06:23;3.80;;;2.43;;
68866;SDS011;56451;44.804;20.476;2022-09-21T18:08:50;3.43;;;2.43;;
68866;SDS011;56451;44.804;20.476;2022-09-21T18:11:21;3.75;;;2.38;;
68866;SDS011;56451;44.804;20.476;2022-09-21T18:17:00;4.15;;;2.40;;
68866;SDS011;56451;44.804;20.476;2022-09-21T18:20:05;5.93;;;2.67;;
68866;SDS011;56451;44.804;20.476;2022-09-21T18:25:35;5.13;;;2.70;;
68866;SDS011;56451;44.804;20.476;2022-09-21T18:28:57;5.55;;;3.10;;
68866;SDS011;56451;44.804;20.476;2022-09-21T18:32:10;4.93;;;3.28;;
68866;SDS011;56451;44.804;20.476;2022-09-21T18:44:48;6.03;;;3.78;;